sensor_id;sensor_type;location;lat;lon;timestamp;P1;durP1;ratioP1;P2;durP2;ratioP2
56173;SDS011;42058;52.308;20.924;2022-11-02T00:01:38;42.30;;;21.47;;
56173;SDS011;42058;52.308;20.924;2022-11-02T00:04:06;43.10;;;21.37;;
56173;SDS011;42058;52.308;20.924;2022-11-02T00:06:33;45.80;;;22.60;;
56173;SDS011;42058;52.308;20.924;2022-11-02T00:08:59;51.50;;;23.13;;
56173;SDS011;42058;52.308;20.924;2022-11-02T00:11:25;48.30;;;23.03;;
56173;SDS011;42058;52.308;20.924;2022-11-02T00:13:51;39.63;;;21.50;;
56173;SDS011;42058;52.308;20.924;2022-11-02T00:16:18;46.10;;;21.90;;
56173;SDS011;42058;52.308;20.924;2022-11-02T00:18:50;46.23;;;22.30;;
56173;SDS011;42058;52.308;20.924;2022-11-02T00:21:20;49.70;;;23.50;;
56173;SDS011;42058;52.308;20.924;2022-11-02T00:23:48;47.73;;;22.83;;
56173;SDS011;42058;52.308;20.924;2022-11-02T00:26:14;47.33;;;22.57;;
56173;SDS011;42058;52.308;20.924;2022-11-02T00:28:42;46.73;;;22.60;;
56173;SDS011;42058;52.308;20.924;2022-11-02T00:31:08;45.43;;;22.13;;
56173;SDS011;42058;52.308;20.924;2022-11-02T00:33:34;46.80;;;22.30;;
56173;SDS011;42058;52.308;20.924;2022-11-02T00:36:00;42.67;;;21.67;;
56173;SDS011;42058;52.308;20.924;2022-11-02T00:38:26;45.67;;;23.50;;
56173;SDS011;42058;52.308;20.924;2022-11-02T00:40:52;42.43;;;21.50;;
56173;SDS011;42058;52.308;20.924;2022-11-02T00:43:18;42.73;;;22.17;;
56173;SDS011;42058;52.308;20.924;2022-11-02T00:45:45;45.37;;;22.13;;
56173;SDS011;42058;52.308;20.924;2022-11-02T00:48:11;43.90;;;22.20;;
56173;SDS011;42058;52.308;20.924;2022-11-02T00:50:37;45.73;;;21.57;;
56173;SDS011;42058;52.308;20.924;2022-11-02T00:53:03;40.87;;;21.67;;
56173;SDS011;42058;52.308;20.924;2022-11-02T00:55:30;42.67;;;21.47;;
56173;SDS011;42058;52.308;20.924;2022-11-02T00:57:58;42.37;;;22.37;;
56173;SDS011;42058;52.308;20.924;2022-11-02T01:00:24;39.40;;;20.80;;
56173;SDS011;42058;52.308;20.924;2022-11-02T01:02:50;44.67;;;21.77;;
56173;SDS011;42058;52.308;20.924;2022-11-02T01:05:16;42.47;;;22.60;;
56173;SDS011;42058;52.308;20.924;2022-11-02T01:07:43;40.03;;;20.93;;
56173;SDS011;42058;52.308;20.924;2022-11-02T01:10:09;43.80;;;22.43;;
56173;SDS011;42058;52.308;20.924;2022-11-02T01:12:37;44.83;;;23.10;;
56173;SDS011;42058;52.308;20.924;2022-11-02T01:15:05;48.03;;;22.10;;
56173;SDS011;42058;52.308;20.924;2022-11-02T01:17:36;43.10;;;22.13;;
56173;SDS011;42058;52.308;20.924;2022-11-02T01:20:03;46.73;;;22.27;;
56173;SDS011;42058;52.308;20.924;2022-11-02T01:22:31;40.83;;;22.60;;
56173;SDS011;42058;52.308;20.924;2022-11-02T01:24:57;46.10;;;22.87;;
56173;SDS011;42058;52.308;20.924;2022-11-02T01:30:11;45.93;;;23.73;;
56173;SDS011;42058;52.308;20.924;2022-11-02T01:32:38;46.30;;;22.43;;
56173;SDS011;42058;52.308;20.924;2022-11-02T01:35:04;47.13;;;22.57;;
56173;SDS011;42058;52.308;20.924;2022-11-02T01:37:30;47.00;;;22.13;;
56173;SDS011;42058;52.308;20.924;2022-11-02T01:39:56;44.80;;;23.03;;
56173;SDS011;42058;52.308;20.924;2022-11-02T01:42:23;52.10;;;24.90;;
56173;SDS011;42058;52.308;20.924;2022-11-02T01:44:52;48.47;;;22.87;;
56173;SDS011;42058;52.308;20.924;2022-11-02T01:47:24;47.87;;;24.10;;
56173;SDS011;42058;52.308;20.924;2022-11-02T01:50:09;48.60;;;23.67;;
56173;SDS011;42058;52.308;20.924;2022-11-02T01:52:45;49.30;;;23.93;;
56173;SDS011;42058;52.308;20.924;2022-11-02T01:55:13;45.30;;;24.30;;
56173;SDS011;42058;52.308;20.924;2022-11-02T01:57:53;47.10;;;22.83;;
56173;SDS011;42058;52.308;20.924;2022-11-02T02:00:24;56.07;;;25.50;;
56173;SDS011;42058;52.308;20.924;2022-11-02T02:02:53;50.63;;;23.73;;
56173;SDS011;42058;52.308;20.924;2022-11-02T02:05:23;52.73;;;24.82;;
56173;SDS011;42058;52.308;20.924;2022-11-02T02:07:50;60.80;;;26.97;;
56173;SDS011;42058;52.308;20.924;2022-11-02T02:10:17;57.20;;;26.13;;
56173;SDS011;42058;52.308;20.924;2022-11-02T02:12:44;58.03;;;25.70;;
56173;SDS011;42058;52.308;20.924;2022-11-02T02:15:12;60.20;;;27.57;;
56173;SDS011;42058;52.308;20.924;2022-11-02T02:17:41;58.63;;;26.10;;
56173;SDS011;42058;52.308;20.924;2022-11-02T02:20:37;59.63;;;26.80;;
56173;SDS011;42058;52.308;20.924;2022-11-02T02:29:15;68.70;;;27.87;;
56173;SDS011;42058;52.308;20.924;2022-11-02T02:32:01;61.07;;;26.17;;
56173;SDS011;42058;52.308;20.924;2022-11-02T02:34:35;66.40;;;27.67;;
56173;SDS011;42058;52.308;20.924;2022-11-02T02:37:20;69.47;;;29.10;;
56173;SDS011;42058;52.308;20.924;2022-11-02T02:40:02;68.00;;;28.27;;
56173;SDS011;42058;52.308;20.924;2022-11-02T02:42:39;70.37;;;28.73;;
56173;SDS011;42058;52.308;20.924;2022-11-02T02:45:37;75.50;;;30.70;;
56173;SDS011;42058;52.308;20.924;2022-11-02T02:48:23;83.30;;;34.33;;
56173;SDS011;42058;52.308;20.924;2022-11-02T02:50:58;85.03;;;33.17;;
56173;SDS011;42058;52.308;20.924;2022-11-02T02:53:51;72.83;;;30.87;;
56173;SDS011;42058;52.308;20.924;2022-11-02T02:56:16;78.47;;;31.93;;
56173;SDS011;42058;52.308;20.924;2022-11-02T02:58:47;79.40;;;31.60;;
56173;SDS011;42058;52.308;20.924;2022-11-02T03:01:30;72.23;;;29.53;;
56173;SDS011;42058;52.308;20.924;2022-11-02T03:03:57;78.13;;;31.80;;
56173;SDS011;42058;52.308;20.924;2022-11-02T03:06:25;80.77;;;32.20;;
56173;SDS011;42058;52.308;20.924;2022-11-02T03:09:05;77.10;;;32.47;;
56173;SDS011;42058;52.308;20.924;2022-11-02T03:12:12;84.13;;;32.60;;
56173;SDS011;42058;52.308;20.924;2022-11-02T03:15:00;80.03;;;31.50;;
56173;SDS011;42058;52.308;20.924;2022-11-02T03:20:33;75.07;;;30.40;;
56173;SDS011;42058;52.308;20.924;2022-11-02T03:23:28;73.07;;;28.90;;
56173;SDS011;42058;52.308;20.924;2022-11-02T03:26:21;81.17;;;30.87;;
56173;SDS011;42058;52.308;20.924;2022-11-02T03:28:59;80.40;;;31.07;;
56173;SDS011;42058;52.308;20.924;2022-11-02T03:31:38;78.50;;;31.07;;
56173;SDS011;42058;52.308;20.924;2022-11-02T03:34:17;76.50;;;30.83;;
56173;SDS011;42058;52.308;20.924;2022-11-02T03:37:02;86.37;;;33.40;;
56173;SDS011;42058;52.308;20.924;2022-11-02T03:40:38;77.90;;;31.93;;
56173;SDS011;42058;52.308;20.924;2022-11-02T03:42:39;81.37;;;32.27;;
56173;SDS011;42058;52.308;20.924;2022-11-02T03:45:09;88.67;;;34.37;;
56173;SDS011;42058;52.308;20.924;2022-11-02T03:47:39;81.67;;;31.67;;
56173;SDS011;42058;52.308;20.924;2022-11-02T03:50:10;96.20;;;35.30;;
56173;SDS011;42058;52.308;20.924;2022-11-02T03:52:39;88.70;;;33.07;;
56173;SDS011;42058;52.308;20.924;2022-11-02T03:55:13;91.87;;;35.70;;
56173;SDS011;42058;52.308;20.924;2022-11-02T03:57:46;98.93;;;36.90;;
56173;SDS011;42058;52.308;20.924;2022-11-02T04:00:18;90.60;;;34.18;;
56173;SDS011;42058;52.308;20.924;2022-11-02T04:02:59;92.10;;;35.58;;
56173;SDS011;42058;52.308;20.924;2022-11-02T04:05:33;97.47;;;35.03;;
56173;SDS011;42058;52.308;20.924;2022-11-02T04:08:09;94.20;;;34.97;;
56173;SDS011;42058;52.308;20.924;2022-11-02T04:10:47;92.67;;;36.03;;
56173;SDS011;42058;52.308;20.924;2022-11-02T04:13:36;99.07;;;35.87;;
56173;SDS011;42058;52.308;20.924;2022-11-02T04:16:22;101.23;;;37.50;;
56173;SDS011;42058;52.308;20.924;2022-11-02T04:18:49;103.30;;;38.47;;
56173;SDS011;42058;52.308;20.924;2022-11-02T04:21:33;99.90;;;37.20;;
56173;SDS011;42058;52.308;20.924;2022-11-02T04:23:59;102.60;;;37.80;;
56173;SDS011;42058;52.308;20.924;2022-11-02T04:26:44;98.93;;;37.97;;
56173;SDS011;42058;52.308;20.924;2022-11-02T04:32:11;96.20;;;37.03;;
56173;SDS011;42058;52.308;20.924;2022-11-02T04:34:38;99.27;;;37.20;;
56173;SDS011;42058;52.308;20.924;2022-11-02T04:37:04;99.00;;;37.97;;
56173;SDS011;42058;52.308;20.924;2022-11-02T04:39:32;104.87;;;36.80;;
56173;SDS011;42058;52.308;20.924;2022-11-02T04:41:58;92.67;;;37.27;;
56173;SDS011;42058;52.308;20.924;2022-11-02T04:44:26;96.83;;;36.87;;
56173;SDS011;42058;52.308;20.924;2022-11-02T04:46:54;98.83;;;37.17;;
56173;SDS011;42058;52.308;20.924;2022-11-02T04:49:22;100.57;;;37.13;;
56173;SDS011;42058;52.308;20.924;2022-11-02T04:51:48;95.90;;;37.90;;
56173;SDS011;42058;52.308;20.924;2022-11-02T04:54:15;109.37;;;38.43;;
56173;SDS011;42058;52.308;20.924;2022-11-02T04:56:42;102.23;;;39.43;;
56173;SDS011;42058;52.308;20.924;2022-11-02T04:59:08;105.50;;;38.87;;
56173;SDS011;42058;52.308;20.924;2022-11-02T05:01:35;100.47;;;37.57;;
56173;SDS011;42058;52.308;20.924;2022-11-02T05:04:01;108.40;;;39.00;;
56173;SDS011;42058;52.308;20.924;2022-11-02T05:06:29;109.73;;;39.57;;
56173;SDS011;42058;52.308;20.924;2022-11-02T05:08:55;100.27;;;38.77;;
56173;SDS011;42058;52.308;20.924;2022-11-02T05:11:22;109.10;;;38.50;;
56173;SDS011;42058;52.308;20.924;2022-11-02T05:13:48;101.07;;;37.93;;
56173;SDS011;42058;52.308;20.924;2022-11-02T05:16:15;108.87;;;40.57;;
56173;SDS011;42058;52.308;20.924;2022-11-02T05:18:43;109.93;;;40.03;;
56173;SDS011;42058;52.308;20.924;2022-11-02T05:21:09;113.93;;;41.87;;
56173;SDS011;42058;52.308;20.924;2022-11-02T05:23:37;104.57;;;40.43;;
56173;SDS011;42058;52.308;20.924;2022-11-02T05:26:05;102.27;;;37.83;;
56173;SDS011;42058;52.308;20.924;2022-11-02T05:28:35;103.23;;;38.47;;
56173;SDS011;42058;52.308;20.924;2022-11-02T05:31:02;101.40;;;39.50;;
56173;SDS011;42058;52.308;20.924;2022-11-02T05:33:30;102.10;;;39.93;;
56173;SDS011;42058;52.308;20.924;2022-11-02T05:35:59;94.87;;;37.80;;
56173;SDS011;42058;52.308;20.924;2022-11-02T05:38:27;105.77;;;39.67;;
56173;SDS011;42058;52.308;20.924;2022-11-02T05:40:55;111.67;;;39.57;;
56173;SDS011;42058;52.308;20.924;2022-11-02T05:43:25;97.87;;;37.93;;
56173;SDS011;42058;52.308;20.924;2022-11-02T05:45:55;100.57;;;41.13;;
56173;SDS011;42058;52.308;20.924;2022-11-02T05:48:25;97.93;;;38.33;;
56173;SDS011;42058;52.308;20.924;2022-11-02T05:51:03;101.87;;;37.83;;
56173;SDS011;42058;52.308;20.924;2022-11-02T05:53:29;95.47;;;38.73;;
56173;SDS011;42058;52.308;20.924;2022-11-02T05:56:01;95.43;;;36.30;;
56173;SDS011;42058;52.308;20.924;2022-11-02T05:58:29;100.67;;;38.43;;
56173;SDS011;42058;52.308;20.924;2022-11-02T06:00:57;103.27;;;38.73;;
56173;SDS011;42058;52.308;20.924;2022-11-02T06:03:26;98.83;;;38.90;;
56173;SDS011;42058;52.308;20.924;2022-11-02T06:05:55;102.77;;;36.67;;
56173;SDS011;42058;52.308;20.924;2022-11-02T06:08:23;88.87;;;36.23;;
56173;SDS011;42058;52.308;20.924;2022-11-02T06:10:50;91.33;;;36.03;;
56173;SDS011;42058;52.308;20.924;2022-11-02T06:13:16;92.97;;;36.53;;
56173;SDS011;42058;52.308;20.924;2022-11-02T06:15:42;88.53;;;35.17;;
56173;SDS011;42058;52.308;20.924;2022-11-02T06:18:08;93.20;;;36.30;;
56173;SDS011;42058;52.308;20.924;2022-11-02T06:20:35;84.93;;;34.07;;
56173;SDS011;42058;52.308;20.924;2022-11-02T06:23:01;77.90;;;32.27;;
56173;SDS011;42058;52.308;20.924;2022-11-02T06:25:27;78.13;;;32.23;;
56173;SDS011;42058;52.308;20.924;2022-11-02T06:31:02;75.90;;;31.03;;
56173;SDS011;42058;52.308;20.924;2022-11-02T06:33:28;82.20;;;31.67;;
56173;SDS011;42058;52.308;20.924;2022-11-02T06:35:54;75.63;;;29.93;;
56173;SDS011;42058;52.308;20.924;2022-11-02T06:38:21;70.33;;;31.73;;
56173;SDS011;42058;52.308;20.924;2022-11-02T06:40:58;76.47;;;30.23;;
56173;SDS011;42058;52.308;20.924;2022-11-02T06:43:28;71.10;;;29.73;;
56173;SDS011;42058;52.308;20.924;2022-11-02T06:45:55;72.47;;;29.07;;
56173;SDS011;42058;52.308;20.924;2022-11-02T06:48:23;70.60;;;29.53;;
56173;SDS011;42058;52.308;20.924;2022-11-02T06:50:50;71.83;;;29.17;;
56173;SDS011;42058;52.308;20.924;2022-11-02T06:53:19;63.23;;;29.43;;
56173;SDS011;42058;52.308;20.924;2022-11-02T06:55:49;71.27;;;29.60;;
56173;SDS011;42058;52.308;20.924;2022-11-02T07:00:44;64.33;;;26.03;;
56173;SDS011;42058;52.308;20.924;2022-11-02T07:03:10;62.73;;;27.43;;
56173;SDS011;42058;52.308;20.924;2022-11-02T07:05:36;66.70;;;28.10;;
56173;SDS011;42058;52.308;20.924;2022-11-02T07:08:02;75.67;;;28.87;;
56173;SDS011;42058;52.308;20.924;2022-11-02T07:10:29;73.77;;;29.70;;
56173;SDS011;42058;52.308;20.924;2022-11-02T07:12:56;67.67;;;28.20;;
56173;SDS011;42058;52.308;20.924;2022-11-02T07:15:23;69.27;;;28.10;;
56173;SDS011;42058;52.308;20.924;2022-11-02T07:17:51;66.27;;;27.30;;
56173;SDS011;42058;52.308;20.924;2022-11-02T07:20:20;63.83;;;28.23;;
56173;SDS011;42058;52.308;20.924;2022-11-02T07:22:53;65.23;;;28.10;;
56173;SDS011;42058;52.308;20.924;2022-11-02T07:25:22;56.30;;;27.00;;
56173;SDS011;42058;52.308;20.924;2022-11-02T07:27:50;59.60;;;26.87;;
56173;SDS011;42058;52.308;20.924;2022-11-02T07:30:16;62.13;;;26.00;;
56173;SDS011;42058;52.308;20.924;2022-11-02T07:32:42;57.93;;;25.73;;
56173;SDS011;42058;52.308;20.924;2022-11-02T07:35:11;67.57;;;27.17;;
56173;SDS011;42058;52.308;20.924;2022-11-02T07:37:39;65.23;;;27.23;;
56173;SDS011;42058;52.308;20.924;2022-11-02T07:40:06;61.47;;;26.17;;
56173;SDS011;42058;52.308;20.924;2022-11-02T07:42:35;58.83;;;26.00;;
56173;SDS011;42058;52.308;20.924;2022-11-02T07:45:03;50.67;;;24.13;;
56173;SDS011;42058;52.308;20.924;2022-11-02T07:47:30;60.33;;;25.60;;
56173;SDS011;42058;52.308;20.924;2022-11-02T07:49:57;56.57;;;23.63;;
56173;SDS011;42058;52.308;20.924;2022-11-02T07:52:24;56.37;;;25.47;;
56173;SDS011;42058;52.308;20.924;2022-11-02T07:54:50;58.00;;;24.30;;
56173;SDS011;42058;52.308;20.924;2022-11-02T07:57:16;57.70;;;25.53;;
56173;SDS011;42058;52.308;20.924;2022-11-02T07:59:42;57.47;;;23.43;;
56173;SDS011;42058;52.308;20.924;2022-11-02T08:02:09;53.13;;;23.73;;
56173;SDS011;42058;52.308;20.924;2022-11-02T08:04:38;48.87;;;22.87;;
56173;SDS011;42058;52.308;20.924;2022-11-02T08:07:04;54.63;;;23.37;;
56173;SDS011;42058;52.308;20.924;2022-11-02T08:09:30;50.57;;;23.60;;
56173;SDS011;42058;52.308;20.924;2022-11-02T08:11:58;59.57;;;24.07;;
56173;SDS011;42058;52.308;20.924;2022-11-02T08:14:24;57.57;;;24.17;;
56173;SDS011;42058;52.308;20.924;2022-11-02T08:16:50;50.80;;;23.77;;
56173;SDS011;42058;52.308;20.924;2022-11-02T08:19:23;47.57;;;22.80;;
56173;SDS011;42058;52.308;20.924;2022-11-02T08:21:46;47.17;;;22.03;;
56173;SDS011;42058;52.308;20.924;2022-11-02T08:24:13;51.80;;;22.77;;
56173;SDS011;42058;52.308;20.924;2022-11-02T08:26:39;53.23;;;24.20;;
56173;SDS011;42058;52.308;20.924;2022-11-02T08:29:05;50.40;;;23.63;;
56173;SDS011;42058;52.308;20.924;2022-11-02T08:31:31;43.30;;;22.37;;
56173;SDS011;42058;52.308;20.924;2022-11-02T08:33:57;51.33;;;23.27;;
56173;SDS011;42058;52.308;20.924;2022-11-02T08:36:23;46.97;;;22.60;;
56173;SDS011;42058;52.308;20.924;2022-11-02T08:38:49;46.30;;;22.20;;
56173;SDS011;42058;52.308;20.924;2022-11-02T08:41:15;44.23;;;21.00;;
56173;SDS011;42058;52.308;20.924;2022-11-02T08:43:42;47.23;;;21.70;;
56173;SDS011;42058;52.308;20.924;2022-11-02T08:46:08;40.73;;;19.40;;
56173;SDS011;42058;52.308;20.924;2022-11-02T08:48:35;40.83;;;20.53;;
56173;SDS011;42058;52.308;20.924;2022-11-02T08:51:01;43.10;;;20.17;;
56173;SDS011;42058;52.308;20.924;2022-11-02T08:53:27;40.03;;;19.37;;
56173;SDS011;42058;52.308;20.924;2022-11-02T08:55:55;40.07;;;18.47;;
56173;SDS011;42058;52.308;20.924;2022-11-02T08:58:23;42.60;;;20.47;;
56173;SDS011;42058;52.308;20.924;2022-11-02T09:00:51;37.17;;;18.87;;
56173;SDS011;42058;52.308;20.924;2022-11-02T09:03:18;35.63;;;17.83;;
56173;SDS011;42058;52.308;20.924;2022-11-02T09:05:45;35.27;;;17.57;;
56173;SDS011;42058;52.308;20.924;2022-11-02T09:08:13;34.30;;;18.17;;
56173;SDS011;42058;52.308;20.924;2022-11-02T09:10:41;35.87;;;18.57;;
56173;SDS011;42058;52.308;20.924;2022-11-02T09:13:10;37.53;;;19.60;;
56173;SDS011;42058;52.308;20.924;2022-11-02T09:15:38;36.50;;;18.87;;
56173;SDS011;42058;52.308;20.924;2022-11-02T09:18:05;34.20;;;17.47;;
56173;SDS011;42058;52.308;20.924;2022-11-02T09:20:33;40.40;;;18.00;;
56173;SDS011;42058;52.308;20.924;2022-11-02T09:23:00;32.37;;;17.47;;
56173;SDS011;42058;52.308;20.924;2022-11-02T09:25:26;33.77;;;18.60;;
56173;SDS011;42058;52.308;20.924;2022-11-02T09:27:54;33.63;;;17.87;;
56173;SDS011;42058;52.308;20.924;2022-11-02T09:30:23;32.80;;;18.80;;
56173;SDS011;42058;52.308;20.924;2022-11-02T09:32:52;35.63;;;18.13;;
56173;SDS011;42058;52.308;20.924;2022-11-02T09:35:23;39.23;;;18.48;;
56173;SDS011;42058;52.308;20.924;2022-11-02T09:37:53;33.90;;;19.60;;
56173;SDS011;42058;52.308;20.924;2022-11-02T09:40:20;33.77;;;19.93;;
56173;SDS011;42058;52.308;20.924;2022-11-02T09:45:30;33.47;;;18.20;;
56173;SDS011;42058;52.308;20.924;2022-11-02T09:48:27;32.23;;;19.33;;
56173;SDS011;42058;52.308;20.924;2022-11-02T09:51:02;32.23;;;19.20;;
56173;SDS011;42058;52.308;20.924;2022-11-02T09:53:51;33.67;;;19.67;;
56173;SDS011;42058;52.308;20.924;2022-11-02T09:56:23;30.60;;;18.23;;
56173;SDS011;42058;52.308;20.924;2022-11-02T09:58:58;30.17;;;18.23;;
56173;SDS011;42058;52.308;20.924;2022-11-02T10:10:14;32.17;;;18.20;;
56173;SDS011;42058;52.308;20.924;2022-11-02T10:13:00;31.67;;;19.77;;
56173;SDS011;42058;52.308;20.924;2022-11-02T10:15:55;37.80;;;19.07;;
56173;SDS011;42058;52.308;20.924;2022-11-02T10:18:25;32.77;;;18.43;;
56173;SDS011;42058;52.308;20.924;2022-11-02T10:20:55;32.27;;;18.17;;
56173;SDS011;42058;52.308;20.924;2022-11-02T10:23:27;36.97;;;19.00;;
56173;SDS011;42058;52.308;20.924;2022-11-02T10:26:20;37.17;;;17.80;;
56173;SDS011;42058;52.308;20.924;2022-11-02T10:28:47;36.37;;;19.00;;
56173;SDS011;42058;52.308;20.924;2022-11-02T10:31:22;32.43;;;17.70;;
56173;SDS011;42058;52.308;20.924;2022-11-02T10:33:56;32.17;;;17.87;;
56173;SDS011;42058;52.308;20.924;2022-11-02T10:41:54;33.03;;;16.40;;
56173;SDS011;42058;52.308;20.924;2022-11-02T10:44:44;31.73;;;16.53;;
56173;SDS011;42058;52.308;20.924;2022-11-02T10:47:32;32.97;;;16.20;;
56173;SDS011;42058;52.308;20.924;2022-11-02T10:52:59;33.90;;;15.63;;
56173;SDS011;42058;52.308;20.924;2022-11-02T10:55:28;27.33;;;14.97;;
56173;SDS011;42058;52.308;20.924;2022-11-02T10:58:02;27.13;;;15.33;;
56173;SDS011;42058;52.308;20.924;2022-11-02T11:00:32;29.27;;;15.70;;
56173;SDS011;42058;52.308;20.924;2022-11-02T11:03:04;27.40;;;15.23;;
56173;SDS011;42058;52.308;20.924;2022-11-02T11:05:49;27.80;;;16.20;;
56173;SDS011;42058;52.308;20.924;2022-11-02T11:08:24;31.53;;;15.80;;
56173;SDS011;42058;52.308;20.924;2022-11-02T11:11:10;35.00;;;17.00;;
56173;SDS011;42058;52.308;20.924;2022-11-02T11:13:59;29.60;;;15.83;;
56173;SDS011;42058;52.308;20.924;2022-11-02T11:16:36;27.70;;;14.90;;
56173;SDS011;42058;52.308;20.924;2022-11-02T11:19:14;28.30;;;15.23;;
56173;SDS011;42058;52.308;20.924;2022-11-02T11:21:47;25.57;;;14.10;;
56173;SDS011;42058;52.308;20.924;2022-11-02T11:24:18;23.77;;;14.50;;
56173;SDS011;42058;52.308;20.924;2022-11-02T11:29:45;21.00;;;13.27;;
56173;SDS011;42058;52.308;20.924;2022-11-02T11:32:19;20.83;;;13.23;;
56173;SDS011;42058;52.308;20.924;2022-11-02T11:34:56;21.60;;;12.10;;
56173;SDS011;42058;52.308;20.924;2022-11-02T11:37:25;22.53;;;12.77;;
56173;SDS011;42058;52.308;20.924;2022-11-02T11:39:54;20.43;;;12.03;;
56173;SDS011;42058;52.308;20.924;2022-11-02T11:42:26;23.37;;;12.17;;
56173;SDS011;42058;52.308;20.924;2022-11-02T11:45:02;19.97;;;11.40;;
56173;SDS011;42058;52.308;20.924;2022-11-02T11:47:36;21.23;;;12.33;;
56173;SDS011;42058;52.308;20.924;2022-11-02T11:50:05;23.30;;;12.28;;
56173;SDS011;42058;52.308;20.924;2022-11-02T11:52:41;15.93;;;10.90;;
56173;SDS011;42058;52.308;20.924;2022-11-02T11:55:26;27.07;;;12.53;;
56173;SDS011;42058;52.308;20.924;2022-11-02T11:58:06;22.93;;;12.63;;
56173;SDS011;42058;52.308;20.924;2022-11-02T12:06:28;23.42;;;12.40;;
56173;SDS011;42058;52.308;20.924;2022-11-02T12:09:19;16.50;;;11.83;;
56173;SDS011;42058;52.308;20.924;2022-11-02T12:15:08;18.57;;;11.47;;
56173;SDS011;42058;52.308;20.924;2022-11-02T12:17:58;16.87;;;10.97;;
56173;SDS011;42058;52.308;20.924;2022-11-02T12:23:54;22.43;;;12.13;;
56173;SDS011;42058;52.308;20.924;2022-11-02T12:26:44;17.90;;;11.13;;
56173;SDS011;42058;52.308;20.924;2022-11-02T12:29:59;18.60;;;10.60;;
56173;SDS011;42058;52.308;20.924;2022-11-02T12:33:03;17.03;;;11.47;;
56173;SDS011;42058;52.308;20.924;2022-11-02T12:35:34;19.80;;;12.00;;
56173;SDS011;42058;52.308;20.924;2022-11-02T12:44:05;19.60;;;11.73;;
56173;SDS011;42058;52.308;20.924;2022-11-02T12:47:30;18.07;;;10.53;;
56173;SDS011;42058;52.308;20.924;2022-11-02T12:49:38;18.50;;;10.97;;
56173;SDS011;42058;52.308;20.924;2022-11-02T12:52:38;15.80;;;10.40;;
56173;SDS011;42058;52.308;20.924;2022-11-02T12:55:13;18.60;;;10.90;;
56173;SDS011;42058;52.308;20.924;2022-11-02T12:57:45;15.43;;;10.47;;
56173;SDS011;42058;52.308;20.924;2022-11-02T13:00:21;20.67;;;11.70;;
56173;SDS011;42058;52.308;20.924;2022-11-02T13:05:44;19.83;;;10.53;;
56173;SDS011;42058;52.308;20.924;2022-11-02T13:08:15;16.95;;;10.50;;
56173;SDS011;42058;52.308;20.924;2022-11-02T13:10:47;18.48;;;11.20;;
56173;SDS011;42058;52.308;20.924;2022-11-02T13:13:22;15.00;;;9.93;;
56173;SDS011;42058;52.308;20.924;2022-11-02T13:16:12;15.73;;;10.70;;
56173;SDS011;42058;52.308;20.924;2022-11-02T13:21:16;17.90;;;11.13;;
56173;SDS011;42058;52.308;20.924;2022-11-02T13:23:49;19.03;;;11.57;;
56173;SDS011;42058;52.308;20.924;2022-11-02T13:26:30;19.13;;;11.87;;
56173;SDS011;42058;52.308;20.924;2022-11-02T13:29:03;15.30;;;11.35;;
56173;SDS011;42058;52.308;20.924;2022-11-02T13:31:46;16.30;;;11.17;;
56173;SDS011;42058;52.308;20.924;2022-11-02T13:34:29;19.67;;;10.57;;
56173;SDS011;42058;52.308;20.924;2022-11-02T13:37:07;17.60;;;10.63;;
56173;SDS011;42058;52.308;20.924;2022-11-02T13:39:41;17.03;;;9.80;;
56173;SDS011;42058;52.308;20.924;2022-11-02T13:42:37;16.30;;;9.83;;
56173;SDS011;42058;52.308;20.924;2022-11-02T13:45:24;16.70;;;9.80;;
56173;SDS011;42058;52.308;20.924;2022-11-02T13:48:17;17.60;;;9.97;;
56173;SDS011;42058;52.308;20.924;2022-11-02T13:54:09;13.20;;;9.50;;
56173;SDS011;42058;52.308;20.924;2022-11-02T13:56:46;17.07;;;10.20;;
56173;SDS011;42058;52.308;20.924;2022-11-02T13:59:20;19.27;;;11.70;;
56173;SDS011;42058;52.308;20.924;2022-11-02T14:01:57;20.83;;;11.40;;
56173;SDS011;42058;52.308;20.924;2022-11-02T14:04:26;17.67;;;11.40;;
56173;SDS011;42058;52.308;20.924;2022-11-02T14:06:58;21.00;;;11.93;;
56173;SDS011;42058;52.308;20.924;2022-11-02T14:09:49;23.10;;;12.07;;
56173;SDS011;42058;52.308;20.924;2022-11-02T14:20:31;18.80;;;11.60;;
56173;SDS011;42058;52.308;20.924;2022-11-02T14:25:49;22.17;;;12.07;;
56173;SDS011;42058;52.308;20.924;2022-11-02T14:33:55;19.53;;;11.67;;
56173;SDS011;42058;52.308;20.924;2022-11-02T14:36:52;19.27;;;11.60;;
56173;SDS011;42058;52.308;20.924;2022-11-02T14:48:17;15.57;;;11.27;;
56173;SDS011;42058;52.308;20.924;2022-11-02T14:50:55;18.70;;;11.50;;
56173;SDS011;42058;52.308;20.924;2022-11-02T14:53:27;20.70;;;11.17;;
56173;SDS011;42058;52.308;20.924;2022-11-02T14:55:57;16.80;;;10.97;;
56173;SDS011;42058;52.308;20.924;2022-11-02T14:58:24;20.70;;;11.70;;
56173;SDS011;42058;52.308;20.924;2022-11-02T15:01:05;16.25;;;11.03;;
56173;SDS011;42058;52.308;20.924;2022-11-02T15:03:37;20.77;;;11.90;;
56173;SDS011;42058;52.308;20.924;2022-11-02T15:08:48;18.30;;;11.63;;
56173;SDS011;42058;52.308;20.924;2022-11-02T15:25:05;21.13;;;10.73;;
56173;SDS011;42058;52.308;20.924;2022-11-02T15:27:47;18.90;;;12.07;;
56173;SDS011;42058;52.308;20.924;2022-11-02T15:30:18;17.40;;;11.53;;
56173;SDS011;42058;52.308;20.924;2022-11-02T15:32:52;25.70;;;12.30;;
56173;SDS011;42058;52.308;20.924;2022-11-02T15:35:24;19.27;;;11.37;;
56173;SDS011;42058;52.308;20.924;2022-11-02T15:37:57;21.70;;;11.17;;
56173;SDS011;42058;52.308;20.924;2022-11-02T15:41:27;19.20;;;11.10;;
56173;SDS011;42058;52.308;20.924;2022-11-02T15:43:35;19.95;;;11.30;;
56173;SDS011;42058;52.308;20.924;2022-11-02T15:46:44;18.90;;;11.70;;
56173;SDS011;42058;52.308;20.924;2022-11-02T15:50:08;21.50;;;13.13;;
56173;SDS011;42058;52.308;20.924;2022-11-02T15:52:54;21.50;;;12.10;;
56173;SDS011;42058;52.308;20.924;2022-11-02T15:55:37;20.37;;;12.37;;
56173;SDS011;42058;52.308;20.924;2022-11-02T15:58:29;26.07;;;12.83;;
56173;SDS011;42058;52.308;20.924;2022-11-02T16:01:05;23.87;;;12.63;;
56173;SDS011;42058;52.308;20.924;2022-11-02T16:03:50;24.77;;;12.90;;
56173;SDS011;42058;52.308;20.924;2022-11-02T16:06:23;20.57;;;12.63;;
56173;SDS011;42058;52.308;20.924;2022-11-02T16:08:52;21.00;;;12.83;;
56173;SDS011;42058;52.308;20.924;2022-11-02T16:11:21;21.50;;;13.33;;
56173;SDS011;42058;52.308;20.924;2022-11-02T16:13:48;25.57;;;13.40;;
56173;SDS011;42058;52.308;20.924;2022-11-02T16:16:17;21.37;;;13.40;;
56173;SDS011;42058;52.308;20.924;2022-11-02T16:18:48;23.80;;;13.30;;
56173;SDS011;42058;52.308;20.924;2022-11-02T16:21:17;21.62;;;12.95;;
56173;SDS011;42058;52.308;20.924;2022-11-02T16:23:46;22.60;;;13.30;;
56173;SDS011;42058;52.308;20.924;2022-11-02T16:26:19;25.87;;;14.00;;
56173;SDS011;42058;52.308;20.924;2022-11-02T16:28:49;27.13;;;16.03;;
56173;SDS011;42058;52.308;20.924;2022-11-02T16:31:21;27.30;;;15.43;;
56173;SDS011;42058;52.308;20.924;2022-11-02T16:36:49;26.37;;;15.27;;